sensor_id;sensor_type;location;lat;lon;timestamp;pressure;altitude;pressure_sealevel;temperature;humidity
34506;BME280;20748;42.632;23.198;2023-02-03T00:00:16;92154.69;;;0.68;88.31
34506;BME280;20748;42.632;23.198;2023-02-03T00:02:48;92156.47;;;0.50;89.89
34506;BME280;20748;42.632;23.198;2023-02-03T00:05:21;92151.88;;;0.52;92.20
34506;BME280;20748;42.632;23.198;2023-02-03T00:07:54;92149.31;;;0.52;92.89
34506;BME280;20748;42.632;23.198;2023-02-03T00:10:27;92150.03;;;0.64;92.69
34506;BME280;20748;42.632;23.198;2023-02-03T00:12:59;92155.69;;;0.49;93.73
34506;BME280;20748;42.632;23.198;2023-02-03T00:15:32;92166.34;;;0.58;94.06
34506;BME280;20748;42.632;23.198;2023-02-03T00:18:05;92157.56;;;0.54;95.53
34506;BME280;20748;42.632;23.198;2023-02-03T00:20:37;92153.28;;;0.60;96.35
34506;BME280;20748;42.632;23.198;2023-02-03T00:23:11;92158.91;;;0.57;97.19
34506;BME280;20748;42.632;23.198;2023-02-03T00:25:44;92163.25;;;0.39;94.57
34506;BME280;20748;42.632;23.198;2023-02-03T00:28:17;92167.75;;;0.49;94.75
34506;BME280;20748;42.632;23.198;2023-02-03T00:30:49;92166.75;;;0.50;94.89
34506;BME280;20748;42.632;23.198;2023-02-03T00:33:24;92170.97;;;0.27;95.09
34506;BME280;20748;42.632;23.198;2023-02-03T00:35:57;92173.00;;;0.25;95.56
34506;BME280;20748;42.632;23.198;2023-02-03T00:38:29;92170.38;;;0.08;91.51
34506;BME280;20748;42.632;23.198;2023-02-03T00:41:02;92179.22;;;0.29;94.14
34506;BME280;20748;42.632;23.198;2023-02-03T00:43:35;92181.97;;;0.39;92.80
34506;BME280;20748;42.632;23.198;2023-02-03T00:46:07;92179.56;;;0.33;89.96
34506;BME280;20748;42.632;23.198;2023-02-03T00:48:40;92182.56;;;0.30;89.75
34506;BME280;20748;42.632;23.198;2023-02-03T00:51:12;92172.53;;;0.28;89.64
34506;BME280;20748;42.632;23.198;2023-02-03T00:53:45;92179.59;;;0.21;90.46
34506;BME280;20748;42.632;23.198;2023-02-03T00:56:19;92189.00;;;0.15;90.94
34506;BME280;20748;42.632;23.198;2023-02-03T00:58:51;92187.75;;;0.18;89.92
34506;BME280;20748;42.632;23.198;2023-02-03T01:01:23;92193.34;;;0.15;89.54
34506;BME280;20748;42.632;23.198;2023-02-03T01:04:02;92197.38;;;0.10;89.10
34506;BME280;20748;42.632;23.198;2023-02-03T01:06:35;92199.56;;;-0.10;90.56
34506;BME280;20748;42.632;23.198;2023-02-03T01:09:07;92200.41;;;-0.05;92.90
34506;BME280;20748;42.632;23.198;2023-02-03T01:11:40;92206.59;;;-0.18;90.62
34506;BME280;20748;42.632;23.198;2023-02-03T01:14:13;92194.97;;;-0.08;92.91
34506;BME280;20748;42.632;23.198;2023-02-03T01:16:45;92209.88;;;0.07;93.22
34506;BME280;20748;42.632;23.198;2023-02-03T01:19:18;92198.69;;;0.13;93.95
34506;BME280;20748;42.632;23.198;2023-02-03T01:21:50;92195.69;;;0.16;93.89
34506;BME280;20748;42.632;23.198;2023-02-03T01:24:22;92200.50;;;0.12;92.21
34506;BME280;20748;42.632;23.198;2023-02-03T01:26:56;92200.53;;;0.01;92.51
34506;BME280;20748;42.632;23.198;2023-02-03T01:29:28;92200.94;;;0.09;93.32
34506;BME280;20748;42.632;23.198;2023-02-03T01:32:01;92218.22;;;0.14;93.29
34506;BME280;20748;42.632;23.198;2023-02-03T01:34:33;92207.19;;;0.13;92.49
34506;BME280;20748;42.632;23.198;2023-02-03T01:37:06;92209.28;;;0.17;91.70
34506;BME280;20748;42.632;23.198;2023-02-03T01:39:38;92210.94;;;0.23;91.56
34506;BME280;20748;42.632;23.198;2023-02-03T01:42:13;92209.69;;;0.25;91.67
34506;BME280;20748;42.632;23.198;2023-02-03T01:44:47;92211.84;;;-0.36;92.01
34506;BME280;20748;42.632;23.198;2023-02-03T01:47:26;92212.28;;;-0.28;91.64
34506;BME280;20748;42.632;23.198;2023-02-03T01:50:04;92220.41;;;-0.19;92.16
34506;BME280;20748;42.632;23.198;2023-02-03T01:52:40;92209.38;;;-0.19;92.32
34506;BME280;20748;42.632;23.198;2023-02-03T01:55:16;92216.16;;;-0.13;92.65
34506;BME280;20748;42.632;23.198;2023-02-03T01:57:53;92208.53;;;-0.37;91.12
34506;BME280;20748;42.632;23.198;2023-02-03T02:00:27;92216.00;;;-0.47;92.86
34506;BME280;20748;42.632;23.198;2023-02-03T02:03:01;92205.19;;;-0.49;93.35
34506;BME280;20748;42.632;23.198;2023-02-03T02:05:38;92204.28;;;-0.43;94.65
34506;BME280;20748;42.632;23.198;2023-02-03T02:08:17;92213.50;;;-0.30;93.37
34506;BME280;20748;42.632;23.198;2023-02-03T02:10:51;92219.13;;;-0.57;94.30
34506;BME280;20748;42.632;23.198;2023-02-03T02:13:25;92225.13;;;-0.51;94.69
34506;BME280;20748;42.632;23.198;2023-02-03T02:16:05;92233.59;;;-0.39;92.80
34506;BME280;20748;42.632;23.198;2023-02-03T02:18:53;92224.44;;;-0.35;92.74
34506;BME280;20748;42.632;23.198;2023-02-03T02:21:57;92238.72;;;-0.27;92.44
34506;BME280;20748;42.632;23.198;2023-02-03T02:25:01;92228.25;;;-0.25;91.23
34506;BME280;20748;42.632;23.198;2023-02-03T02:28:08;92237.34;;;-0.06;91.12
34506;BME280;20748;42.632;23.198;2023-02-03T02:31:02;92248.72;;;-0.02;89.92
34506;BME280;20748;42.632;23.198;2023-02-03T02:33:41;92257.44;;;-0.03;91.03
34506;BME280;20748;42.632;23.198;2023-02-03T02:36:24;92260.78;;;-0.14;90.03
34506;BME280;20748;42.632;23.198;2023-02-03T02:39:08;92264.16;;;-0.25;88.81
34506;BME280;20748;42.632;23.198;2023-02-03T02:41:43;92259.88;;;-0.20;90.55
34506;BME280;20748;42.632;23.198;2023-02-03T02:44:23;92261.34;;;-0.36;92.79
34506;BME280;20748;42.632;23.198;2023-02-03T02:46:59;92257.03;;;-0.35;91.07
34506;BME280;20748;42.632;23.198;2023-02-03T02:49:36;92259.34;;;-0.22;89.60
34506;BME280;20748;42.632;23.198;2023-02-03T02:52:13;92228.81;;;-0.47;88.40
34506;BME280;20748;42.632;23.198;2023-02-03T02:54:50;92251.31;;;-0.25;88.37
34506;BME280;20748;42.632;23.198;2023-02-03T02:57:25;92268.69;;;-0.28;88.74
34506;BME280;20748;42.632;23.198;2023-02-03T02:59:59;92263.56;;;-0.51;90.98
34506;BME280;20748;42.632;23.198;2023-02-03T03:02:35;92273.25;;;-0.42;90.37
34506;BME280;20748;42.632;23.198;2023-02-03T03:05:09;92260.69;;;-0.43;89.75
34506;BME280;20748;42.632;23.198;2023-02-03T03:07:52;92271.03;;;-0.74;90.91
34506;BME280;20748;42.632;23.198;2023-02-03T03:10:29;92274.50;;;-0.56;90.45
34506;BME280;20748;42.632;23.198;2023-02-03T03:13:04;92275.84;;;-0.53;90.30
34506;BME280;20748;42.632;23.198;2023-02-03T03:15:39;92286.88;;;-0.53;90.56
34506;BME280;20748;42.632;23.198;2023-02-03T03:18:16;92287.56;;;-0.46;90.66
34506;BME280;20748;42.632;23.198;2023-02-03T03:20:52;92294.25;;;-0.45;90.16
34506;BME280;20748;42.632;23.198;2023-02-03T03:23:29;92290.69;;;-0.32;88.72
34506;BME280;20748;42.632;23.198;2023-02-03T03:26:07;92300.03;;;-0.49;88.78
34506;BME280;20748;42.632;23.198;2023-02-03T03:28:44;92301.13;;;-0.45;89.51
34506;BME280;20748;42.632;23.198;2023-02-03T03:31:18;92294.44;;;-0.46;90.40
34506;BME280;20748;42.632;23.198;2023-02-03T03:33:51;92298.47;;;-0.38;89.58
34506;BME280;20748;42.632;23.198;2023-02-03T03:36:26;92303.56;;;-0.50;88.85
34506;BME280;20748;42.632;23.198;2023-02-03T03:39:04;92296.09;;;-0.76;89.93
34506;BME280;20748;42.632;23.198;2023-02-03T03:41:45;92276.50;;;-0.70;90.88
34506;BME280;20748;42.632;23.198;2023-02-03T03:44:21;92287.78;;;-0.47;91.21
34506;BME280;20748;42.632;23.198;2023-02-03T03:47:03;92289.88;;;-0.56;90.21
34506;BME280;20748;42.632;23.198;2023-02-03T03:49:39;92298.81;;;-0.47;89.63
34506;BME280;20748;42.632;23.198;2023-02-03T03:52:20;92298.69;;;-0.40;89.27
34506;BME280;20748;42.632;23.198;2023-02-03T03:54:55;92288.22;;;-0.38;89.35
34506;BME280;20748;42.632;23.198;2023-02-03T03:57:34;92278.28;;;-0.35;87.70
34506;BME280;20748;42.632;23.198;2023-02-03T04:00:09;92282.88;;;-0.37;88.82
34506;BME280;20748;42.632;23.198;2023-02-03T04:02:46;92284.09;;;-0.63;89.34
34506;BME280;20748;42.632;23.198;2023-02-03T04:05:23;92289.09;;;-0.57;90.19
34506;BME280;20748;42.632;23.198;2023-02-03T04:07:58;92281.16;;;-0.79;90.81
34506;BME280;20748;42.632;23.198;2023-02-03T04:13:15;92297.66;;;-0.75;90.07
34506;BME280;20748;42.632;23.198;2023-02-03T04:15:50;92292.88;;;-0.59;90.05
34506;BME280;20748;42.632;23.198;2023-02-03T04:18:23;92296.66;;;-0.74;89.40
34506;BME280;20748;42.632;23.198;2023-02-03T04:22:18;92300.69;;;-0.54;89.49
34506;BME280;20748;42.632;23.198;2023-02-03T04:24:50;92300.56;;;-0.71;89.02
34506;BME280;20748;42.632;23.198;2023-02-03T04:27:22;92319.75;;;-0.62;89.78
34506;BME280;20748;42.632;23.198;2023-02-03T04:29:55;92323.75;;;-0.66;89.05
34506;BME280;20748;42.632;23.198;2023-02-03T04:32:27;92316.84;;;-0.53;89.62
34506;BME280;20748;42.632;23.198;2023-02-03T04:35:02;92320.84;;;-0.58;88.18
34506;BME280;20748;42.632;23.198;2023-02-03T04:37:36;92313.84;;;-0.50;88.02
34506;BME280;20748;42.632;23.198;2023-02-03T04:40:10;92304.13;;;-0.72;89.84
34506;BME280;20748;42.632;23.198;2023-02-03T04:42:43;92323.28;;;-0.75;89.08
34506;BME280;20748;42.632;23.198;2023-02-03T04:45:15;92330.97;;;-0.63;90.91
34506;BME280;20748;42.632;23.198;2023-02-03T04:47:50;92322.88;;;-0.60;88.90
34506;BME280;20748;42.632;23.198;2023-02-03T04:50:26;92330.38;;;-0.89;90.37
34506;BME280;20748;42.632;23.198;2023-02-03T04:52:59;92329.19;;;-0.74;89.37
34506;BME280;20748;42.632;23.198;2023-02-03T04:55:32;92334.75;;;-0.65;89.24
34506;BME280;20748;42.632;23.198;2023-02-03T04:58:04;92342.56;;;-0.60;88.92
34506;BME280;20748;42.632;23.198;2023-02-03T05:00:37;92349.94;;;-0.64;88.06
34506;BME280;20748;42.632;23.198;2023-02-03T05:03:09;92348.91;;;-0.75;87.94
34506;BME280;20748;42.632;23.198;2023-02-03T05:05:42;92345.84;;;-0.96;89.09
34506;BME280;20748;42.632;23.198;2023-02-03T05:08:15;92344.41;;;-0.91;89.19
34506;BME280;20748;42.632;23.198;2023-02-03T05:10:48;92351.47;;;-0.75;89.53
34506;BME280;20748;42.632;23.198;2023-02-03T05:13:20;92362.38;;;-0.79;89.46
34506;BME280;20748;42.632;23.198;2023-02-03T05:15:52;92359.59;;;-0.78;89.43
34506;BME280;20748;42.632;23.198;2023-02-03T05:18:25;92367.72;;;-0.81;89.82
34506;BME280;20748;42.632;23.198;2023-02-03T05:20:57;92360.50;;;-0.72;88.53
34506;BME280;20748;42.632;23.198;2023-02-03T05:23:30;92361.97;;;-0.64;89.27
34506;BME280;20748;42.632;23.198;2023-02-03T05:26:04;92372.72;;;-0.86;89.84
34506;BME280;20748;42.632;23.198;2023-02-03T05:28:36;92381.69;;;-0.96;90.36
34506;BME280;20748;42.632;23.198;2023-02-03T05:31:09;92374.06;;;-0.84;89.18
34506;BME280;20748;42.632;23.198;2023-02-03T05:33:41;92387.69;;;-0.71;88.72
34506;BME280;20748;42.632;23.198;2023-02-03T05:50:59;92393.97;;;-1.72;96.24
34506;BME280;20748;42.632;23.198;2023-02-03T05:53:32;92402.75;;;-1.62;96.23
34506;BME280;20748;42.632;23.198;2023-02-03T05:56:05;92401.91;;;-1.55;94.02
34506;BME280;20748;42.632;23.198;2023-02-03T06:01:39;92414.34;;;-1.59;93.73
34506;BME280;20748;42.632;23.198;2023-02-03T06:04:12;92414.06;;;-1.51;93.82
34506;BME280;20748;42.632;23.198;2023-02-03T06:06:45;92421.09;;;-1.46;93.32
34506;BME280;20748;42.632;23.198;2023-02-03T06:09:18;92415.69;;;-1.38;92.63
34506;BME280;20748;42.632;23.198;2023-02-03T06:11:50;92419.50;;;-1.28;90.59
34506;BME280;20748;42.632;23.198;2023-02-03T06:14:23;92419.44;;;-1.22;90.64
34506;BME280;20748;42.632;23.198;2023-02-03T06:16:56;92413.78;;;-1.24;90.99
34506;BME280;20748;42.632;23.198;2023-02-03T06:19:28;92428.41;;;-1.12;90.18
34506;BME280;20748;42.632;23.198;2023-02-03T06:22:01;92428.03;;;-1.16;89.95
34506;BME280;20748;42.632;23.198;2023-02-03T06:24:33;92446.13;;;-1.29;90.20
34506;BME280;20748;42.632;23.198;2023-02-03T06:27:06;92433.47;;;-1.24;89.96
34506;BME280;20748;42.632;23.198;2023-02-03T06:29:38;92436.03;;;-1.24;90.01
34506;BME280;20748;42.632;23.198;2023-02-03T06:32:11;92431.09;;;-1.07;89.62
34506;BME280;20748;42.632;23.198;2023-02-03T06:34:44;92436.44;;;-1.09;89.23
34506;BME280;20748;42.632;23.198;2023-02-03T06:37:16;92442.41;;;-0.96;89.43
34506;BME280;20748;42.632;23.198;2023-02-03T06:39:48;92445.56;;;-1.13;88.69
34506;BME280;20748;42.632;23.198;2023-02-03T06:42:21;92462.19;;;-1.03;88.28
34506;BME280;20748;42.632;23.198;2023-02-03T06:44:53;92449.31;;;-1.15;87.44
34506;BME280;20748;42.632;23.198;2023-02-03T06:47:26;92453.44;;;-1.14;88.06
34506;BME280;20748;42.632;23.198;2023-02-03T06:49:59;92458.84;;;-1.41;89.38
34506;BME280;20748;42.632;23.198;2023-02-03T06:52:31;92454.94;;;-1.25;88.73
34506;BME280;20748;42.632;23.198;2023-02-03T06:55:05;92457.50;;;-1.25;89.44
34506;BME280;20748;42.632;23.198;2023-02-03T06:57:42;92466.53;;;-1.23;88.53
34506;BME280;20748;42.632;23.198;2023-02-03T07:00:16;92452.16;;;-1.05;87.29
34506;BME280;20748;42.632;23.198;2023-02-03T07:02:54;92461.25;;;-1.09;88.33
34506;BME280;20748;42.632;23.198;2023-02-03T07:05:27;92469.88;;;-1.03;87.46
34506;BME280;20748;42.632;23.198;2023-02-03T07:07:59;92464.38;;;-1.07;87.43
34506;BME280;20748;42.632;23.198;2023-02-03T07:10:32;92457.16;;;-1.10;89.21
34506;BME280;20748;42.632;23.198;2023-02-03T07:13:05;92461.91;;;-0.95;87.19
34506;BME280;20748;42.632;23.198;2023-02-03T07:15:38;92463.59;;;-0.89;86.79
34506;BME280;20748;42.632;23.198;2023-02-03T07:18:11;92471.16;;;-0.94;85.34
34506;BME280;20748;42.632;23.198;2023-02-03T07:20:49;92468.88;;;-0.84;86.04
34506;BME280;20748;42.632;23.198;2023-02-03T07:23:22;92456.06;;;-1.02;84.88
34506;BME280;20748;42.632;23.198;2023-02-03T07:25:57;92474.69;;;-0.76;85.14
34506;BME280;20748;42.632;23.198;2023-02-03T07:28:30;92472.13;;;-0.76;84.69
34506;BME280;20748;42.632;23.198;2023-02-03T07:31:03;92474.75;;;-0.64;87.23
34506;BME280;20748;42.632;23.198;2023-02-03T07:33:37;92461.94;;;-0.83;83.78
34506;BME280;20748;42.632;23.198;2023-02-03T07:36:10;92470.22;;;-0.81;82.25
34506;BME280;20748;42.632;23.198;2023-02-03T07:38:42;92479.38;;;-0.73;83.09
34506;BME280;20748;42.632;23.198;2023-02-03T07:41:15;92472.19;;;-0.64;84.81
34506;BME280;20748;42.632;23.198;2023-02-03T07:43:52;92472.94;;;-0.64;83.75
34506;BME280;20748;42.632;23.198;2023-02-03T07:46:32;92479.00;;;-0.58;83.37
34506;BME280;20748;42.632;23.198;2023-02-03T07:49:06;92485.03;;;-0.52;82.90
34506;BME280;20748;42.632;23.198;2023-02-03T07:51:38;92473.94;;;-0.65;82.12
34506;BME280;20748;42.632;23.198;2023-02-03T07:54:11;92483.03;;;-0.50;81.83
34506;BME280;20748;42.632;23.198;2023-02-03T07:56:44;92475.56;;;-0.52;82.34
34506;BME280;20748;42.632;23.198;2023-02-03T07:59:17;92484.69;;;-0.56;81.38
34506;BME280;20748;42.632;23.198;2023-02-03T08:01:49;92484.72;;;-0.75;81.70
34506;BME280;20748;42.632;23.198;2023-02-03T08:04:22;92480.97;;;-0.60;82.99
34506;BME280;20748;42.632;23.198;2023-02-03T08:06:55;92486.56;;;-0.63;82.68
34506;BME280;20748;42.632;23.198;2023-02-03T08:09:27;92490.19;;;-0.71;80.57
34506;BME280;20748;42.632;23.198;2023-02-03T08:12:00;92495.00;;;-0.63;81.17
34506;BME280;20748;42.632;23.198;2023-02-03T08:14:32;92498.41;;;-0.50;81.19
34506;BME280;20748;42.632;23.198;2023-02-03T08:17:05;92495.63;;;-0.49;82.63
34506;BME280;20748;42.632;23.198;2023-02-03T08:19:38;92494.91;;;-0.37;81.62
34506;BME280;20748;42.632;23.198;2023-02-03T08:22:10;92488.59;;;-0.53;82.30
34506;BME280;20748;42.632;23.198;2023-02-03T08:24:46;92488.53;;;-0.47;81.23
34506;BME280;20748;42.632;23.198;2023-02-03T08:27:20;92493.69;;;-0.35;79.90
34506;BME280;20748;42.632;23.198;2023-02-03T08:29:53;92491.28;;;-0.48;77.82
34506;BME280;20748;42.632;23.198;2023-02-03T08:32:25;92481.41;;;-0.33;78.24
34506;BME280;20748;42.632;23.198;2023-02-03T08:34:59;92501.19;;;-0.21;79.56
34506;BME280;20748;42.632;23.198;2023-02-03T08:37:31;92487.84;;;-0.11;79.41
34506;BME280;20748;42.632;23.198;2023-02-03T08:40:05;92492.22;;;0.00;79.36
34506;BME280;20748;42.632;23.198;2023-02-03T08:42:38;92507.78;;;-0.14;75.40
34506;BME280;20748;42.632;23.198;2023-02-03T08:45:10;92518.31;;;-0.03;75.78
34506;BME280;20748;42.632;23.198;2023-02-03T08:47:43;92516.22;;;0.06;75.81
34506;BME280;20748;42.632;23.198;2023-02-03T08:50:16;92514.72;;;-0.02;75.94
34506;BME280;20748;42.632;23.198;2023-02-03T08:52:50;92521.88;;;-0.04;74.75
34506;BME280;20748;42.632;23.198;2023-02-03T08:55:22;92520.44;;;0.00;76.77
34506;BME280;20748;42.632;23.198;2023-02-03T08:57:55;92528.94;;;0.12;77.45
34506;BME280;20748;42.632;23.198;2023-02-03T09:00:28;92526.47;;;0.06;78.20
34506;BME280;20748;42.632;23.198;2023-02-03T09:03:02;92524.94;;;0.17;77.30
34506;BME280;20748;42.632;23.198;2023-02-03T09:05:35;92520.25;;;0.25;76.57
34506;BME280;20748;42.632;23.198;2023-02-03T09:08:08;92518.25;;;0.28;76.61
34506;BME280;20748;42.632;23.198;2023-02-03T09:10:40;92498.53;;;0.40;76.87
34506;BME280;20748;42.632;23.198;2023-02-03T09:13:13;92514.81;;;0.46;76.37
34506;BME280;20748;42.632;23.198;2023-02-03T09:15:45;92509.44;;;0.35;74.39
34506;BME280;20748;42.632;23.198;2023-02-03T09:18:17;92517.50;;;0.51;73.81
34506;BME280;20748;42.632;23.198;2023-02-03T09:20:50;92520.50;;;0.60;75.44
34506;BME280;20748;42.632;23.198;2023-02-03T09:23:23;92517.59;;;0.56;74.90
34506;BME280;20748;42.632;23.198;2023-02-03T09:25:55;92513.94;;;0.64;75.62
34506;BME280;20748;42.632;23.198;2023-02-03T09:28:33;92513.59;;;0.72;74.45
34506;BME280;20748;42.632;23.198;2023-02-03T09:31:07;92516.72;;;0.74;73.35
34506;BME280;20748;42.632;23.198;2023-02-03T09:33:40;92509.00;;;0.86;74.09
34506;BME280;20748;42.632;23.198;2023-02-03T09:36:13;92512.00;;;0.95;74.43
34506;BME280;20748;42.632;23.198;2023-02-03T09:38:45;92504.19;;;1.02;74.69
34506;BME280;20748;42.632;23.198;2023-02-03T09:41:29;92509.06;;;1.15;73.83
34506;BME280;20748;42.632;23.198;2023-02-03T09:44:11;92509.28;;;1.14;73.65
34506;BME280;20748;42.632;23.198;2023-02-03T09:46:52;92493.22;;;1.18;72.60
34506;BME280;20748;42.632;23.198;2023-02-03T09:49:30;92504.34;;;1.36;73.55
34506;BME280;20748;42.632;23.198;2023-02-03T09:52:11;92498.66;;;1.63;73.17
34506;BME280;20748;42.632;23.198;2023-02-03T09:54:49;92509.31;;;1.84;68.94
34506;BME280;20748;42.632;23.198;2023-02-03T09:57:25;92502.94;;;1.86;68.59
34506;BME280;20748;42.632;23.198;2023-02-03T10:00:02;92502.06;;;1.98;69.05
34506;BME280;20748;42.632;23.198;2023-02-03T10:02:48;92513.22;;;1.86;68.46
34506;BME280;20748;42.632;23.198;2023-02-03T10:05:33;92509.66;;;2.05;67.99
34506;BME280;20748;42.632;23.198;2023-02-03T10:08:18;92503.50;;;2.23;67.30
34506;BME280;20748;42.632;23.198;2023-02-03T10:10:59;92504.44;;;2.34;64.63
34506;BME280;20748;42.632;23.198;2023-02-03T10:13:48;92501.19;;;1.92;65.60
34506;BME280;20748;42.632;23.198;2023-02-03T10:16:50;92486.34;;;2.11;65.08
34506;BME280;20748;42.632;23.198;2023-02-03T10:19:35;92493.50;;;2.44;65.49
34506;BME280;20748;42.632;23.198;2023-02-03T10:22:14;92464.47;;;2.31;61.90
34506;BME280;20748;42.632;23.198;2023-02-03T10:24:52;92483.75;;;2.11;63.12
34506;BME280;20748;42.632;23.198;2023-02-03T10:27:28;92485.69;;;1.87;65.26
34506;BME280;20748;42.632;23.198;2023-02-03T10:30:04;92477.03;;;1.93;66.70
34506;BME280;20748;42.632;23.198;2023-02-03T10:32:37;92485.50;;;1.77;64.07
34506;BME280;20748;42.632;23.198;2023-02-03T10:35:11;92473.56;;;1.70;64.56
34506;BME280;20748;42.632;23.198;2023-02-03T10:37:46;92471.00;;;1.41;65.33
34506;BME280;20748;42.632;23.198;2023-02-03T10:40:23;92481.94;;;1.49;68.43
34506;BME280;20748;42.632;23.198;2023-02-03T10:42:57;92476.69;;;1.43;70.95
34506;BME280;20748;42.632;23.198;2023-02-03T10:45:48;92483.78;;;1.36;68.33
34506;BME280;20748;42.632;23.198;2023-02-03T10:48:21;92479.09;;;1.21;65.35
34506;BME280;20748;42.632;23.198;2023-02-03T10:50:54;92495.44;;;1.15;64.12
34506;BME280;20748;42.632;23.198;2023-02-03T10:53:33;92486.72;;;1.16;63.23
34506;BME280;20748;42.632;23.198;2023-02-03T10:56:08;92488.50;;;1.27;64.02
34506;BME280;20748;42.632;23.198;2023-02-03T10:58:46;92487.72;;;1.15;62.54
34506;BME280;20748;42.632;23.198;2023-02-03T11:01:22;92479.72;;;0.99;61.48
34506;BME280;20748;42.632;23.198;2023-02-03T11:03:58;92482.97;;;0.83;60.76
34506;BME280;20748;42.632;23.198;2023-02-03T11:06:32;92479.88;;;0.80;60.72
34506;BME280;20748;42.632;23.198;2023-02-03T11:09:22;92471.22;;;0.99;63.02
34506;BME280;20748;42.632;23.198;2023-02-03T11:12:10;92484.97;;;1.04;61.74
34506;BME280;20748;42.632;23.198;2023-02-03T11:14:44;92490.16;;;0.80;59.49
34506;BME280;20748;42.632;23.198;2023-02-03T11:17:19;92486.56;;;0.82;61.08
34506;BME280;20748;42.632;23.198;2023-02-03T11:19:56;92478.38;;;0.85;58.47
34506;BME280;20748;42.632;23.198;2023-02-03T11:22:36;92467.63;;;1.00;59.82
34506;BME280;20748;42.632;23.198;2023-02-03T11:25:16;92466.94;;;1.16;60.94
34506;BME280;20748;42.632;23.198;2023-02-03T11:27:51;92454.06;;;1.28;61.22
34506;BME280;20748;42.632;23.198;2023-02-03T11:30:25;92451.53;;;1.45;62.59
34506;BME280;20748;42.632;23.198;2023-02-03T11:33:01;92454.88;;;1.46;62.63
34506;BME280;20748;42.632;23.198;2023-02-03T11:35:34;92435.25;;;1.57;63.32
34506;BME280;20748;42.632;23.198;2023-02-03T11:38:28;92432.97;;;1.72;61.27
34506;BME280;20748;42.632;23.198;2023-02-03T11:41:02;92428.13;;;1.93;62.28
34506;BME280;20748;42.632;23.198;2023-02-03T11:43:35;92421.13;;;1.88;62.21
34506;BME280;20748;42.632;23.198;2023-02-03T11:46:07;92418.78;;;1.70;60.50
34506;BME280;20748;42.632;23.198;2023-02-03T11:48:49;92411.53;;;1.84;59.73
34506;BME280;20748;42.632;23.198;2023-02-03T11:51:33;92421.41;;;2.09;60.32
34506;BME280;20748;42.632;23.198;2023-02-03T11:54:19;92427.59;;;2.25;60.04
34506;BME280;20748;42.632;23.198;2023-02-03T11:57:09;92433.34;;;2.15;57.90
34506;BME280;20748;42.632;23.198;2023-02-03T12:00:02;92433.63;;;1.68;57.14
34506;BME280;20748;42.632;23.198;2023-02-03T12:02:58;92434.31;;;1.46;60.08
34506;BME280;20748;42.632;23.198;2023-02-03T12:05:49;92436.47;;;1.66;57.84
34506;BME280;20748;42.632;23.198;2023-02-03T12:08:42;92435.75;;;1.71;56.69
34506;BME280;20748;42.632;23.198;2023-02-03T12:11:28;92429.38;;;1.73;57.10
34506;BME280;20748;42.632;23.198;2023-02-03T12:14:16;92433.91;;;1.83;56.74
34506;BME280;20748;42.632;23.198;2023-02-03T12:16:57;92435.75;;;1.88;56.58
34506;BME280;20748;42.632;23.198;2023-02-03T12:19:46;92430.53;;;1.66;54.76
34506;BME280;20748;42.632;23.198;2023-02-03T12:22:30;92431.69;;;1.58;56.55
34506;BME280;20748;42.632;23.198;2023-02-03T12:25:19;92432.06;;;1.50;56.90
34506;BME280;20748;42.632;23.198;2023-02-03T12:28:01;92424.94;;;1.69;57.85
34506;BME280;20748;42.632;23.198;2023-02-03T12:30:40;92426.72;;;1.68;56.42
34506;BME280;20748;42.632;23.198;2023-02-03T12:33:18;92428.88;;;1.59;56.89
34506;BME280;20748;42.632;23.198;2023-02-03T12:35:55;92424.59;;;1.65;55.75
34506;BME280;20748;42.632;23.198;2023-02-03T12:38:34;92432.16;;;1.72;58.80
34506;BME280;20748;42.632;23.198;2023-02-03T12:41:12;92430.03;;;1.52;57.22
34506;BME280;20748;42.632;23.198;2023-02-03T12:43:50;92412.66;;;1.59;57.55
34506;BME280;20748;42.632;23.198;2023-02-03T12:46:27;92414.81;;;1.50;59.79
34506;BME280;20748;42.632;23.198;2023-02-03T12:49:08;92415.78;;;1.61;58.13
34506;BME280;20748;42.632;23.198;2023-02-03T12:51:44;92417.22;;;1.86;60.24
34506;BME280;20748;42.632;23.198;2023-02-03T12:54:30;92426.19;;;2.00;59.67
34506;BME280;20748;42.632;23.198;2023-02-03T12:57:13;92411.06;;;2.04;58.25
34506;BME280;20748;42.632;23.198;2023-02-03T12:59:59;92404.25;;;1.98;57.93
34506;BME280;20748;42.632;23.198;2023-02-03T13:02:44;92398.66;;;2.01;58.61
34506;BME280;20748;42.632;23.198;2023-02-03T13:05:25;92404.88;;;1.88;56.55
34506;BME280;20748;42.632;23.198;2023-02-03T13:08:06;92404.00;;;1.48;58.43
34506;BME280;20748;42.632;23.198;2023-02-03T13:10:46;92393.97;;;1.64;58.61
34506;BME280;20748;42.632;23.198;2023-02-03T13:13:27;92394.84;;;2.04;59.77
34506;BME280;20748;42.632;23.198;2023-02-03T13:16:05;92387.56;;;2.18;56.32
34506;BME280;20748;42.632;23.198;2023-02-03T13:18:43;92391.22;;;2.39;56.12
34506;BME280;20748;42.632;23.198;2023-02-03T13:21:18;92392.84;;;2.45;56.23
34506;BME280;20748;42.632;23.198;2023-02-03T13:23:50;92390.47;;;2.83;55.33
34506;BME280;20748;42.632;23.198;2023-02-03T13:26:36;92395.53;;;3.00;56.02
34506;BME280;20748;42.632;23.198;2023-02-03T13:29:27;92399.56;;;3.13;54.16
34506;BME280;20748;42.632;23.198;2023-02-03T13:32:13;92399.56;;;3.13;54.32
34506;BME280;20748;42.632;23.198;2023-02-03T13:35:07;92393.38;;;3.14;55.23
34506;BME280;20748;42.632;23.198;2023-02-03T13:38:07;92384.72;;;2.76;55.02
34506;BME280;20748;42.632;23.198;2023-02-03T13:40:48;92393.50;;;2.58;54.75
34506;BME280;20748;42.632;23.198;2023-02-03T13:43:28;92390.84;;;2.52;55.22
34506;BME280;20748;42.632;23.198;2023-02-03T13:46:19;92388.69;;;2.44;55.31
34506;BME280;20748;42.632;23.198;2023-02-03T13:48:53;92388.09;;;2.20;55.88
34506;BME280;20748;42.632;23.198;2023-02-03T13:51:29;92395.00;;;2.14;55.92
34506;BME280;20748;42.632;23.198;2023-02-03T13:54:11;92402.97;;;1.95;57.60
34506;BME280;20748;42.632;23.198;2023-02-03T13:56:52;92404.59;;;2.01;57.04
34506;BME280;20748;42.632;23.198;2023-02-03T13:59:29;92400.63;;;1.94;56.49
34506;BME280;20748;42.632;23.198;2023-02-03T14:02:30;92401.28;;;1.89;55.16
34506;BME280;20748;42.632;23.198;2023-02-03T14:05:43;92398.03;;;1.94;56.54